Terminal Aerodrome Forecast
Issued by NWS Memphis, TN

Home | Current Version | Previous Version | Text Only | Print | Product List | Glossary On
Versions: 1 2 3 4 5 6 7 8 9 10 11 12 13 14 15 16
163
FTUS44 KMEG 250530
TAFJBR
TAF
KJBR 250530Z 2506/2606 00000KT P6SM SKC
     FM250700 22003KT P6SM BKN100
      TEMPO 2509/2513 4SM BR
     FM251700 21007KT P6SM VCTS BKN040CB BKN150=

USA.gov is the U.S. government's official web portal to all federal, state and local government web resources and services.